Time;durP1;ratioP1;P1;durP2;ratioP2;P2;SDS_P1;SDS_P2;PMS_P1;PMS_P2;Temp;Humidity;BMP_temperature;BMP_pressure;BME280_temperature;BME280_humidity;BME280_pressure;Samples;Min_cycle;Max_cycle;Signal;HPM_P1;HPM_P2
2022/01/07 00:00:16;;;;;;;25.33;7.40;;;3.80;99.90;;;;;;5058928;28;20043;-82
2022/01/07 00:02:42;;;;;;;24.40;7.10;;;3.80;99.90;;;;;;5054001;28;20047;-80
2022/01/07 00:05:09;;;;;;;19.97;7.00;;;3.80;99.90;;;;;;5044663;28;20430;-84
2022/01/07 00:07:35;;;;;;;16.83;7.07;;;3.90;99.90;;;;;;5058014;28;20328;-81
2022/01/07 00:10:02;;;;;;;17.93;6.07;;;3.90;99.90;;;;;;5042276;28;20044;-81
2022/01/07 00:12:27;;;;;;;18.97;6.20;;;3.80;99.90;;;;;;5078456;28;20048;-80
2022/01/07 00:14:53;;;;;;;19.53;6.27;;;3.80;99.90;;;;;;5055542;28;20308;-81
2022/01/07 00:17:20;;;;;;;23.93;7.10;;;3.80;99.90;;;;;;5047649;28;20044;-80
2022/01/07 00:19:46;;;;;;;16.40;6.33;;;3.80;99.90;;;;;;5037546;28;20048;-81
2022/01/07 00:22:12;;;;;;;18.70;6.60;;;3.80;99.90;;;;;;5042565;28;20885;-80
2022/01/07 00:24:38;;;;;;;18.43;6.30;;;3.90;99.90;;;;;;5037625;28;20048;-80
2022/01/07 00:27:04;;;;;;;17.70;6.00;;;3.80;99.90;;;;;;5056046;28;20047;-81
2022/01/07 00:29:30;;;;;;;22.33;6.40;;;3.80;99.90;;;;;;5045356;28;20093;-80
2022/01/07 00:31:55;;;;;;;14.60;6.43;;;3.80;99.90;;;;;;5054607;28;20706;-82
2022/01/07 00:34:23;;;;;;;16.50;5.50;;;3.90;99.90;;;;;;5049078;28;20043;-80
2022/01/07 00:36:48;;;;;;;18.47;6.03;;;3.80;99.90;;;;;;5075493;28;20566;-80
2022/01/07 00:39:14;;;;;;;19.70;5.70;;;3.90;99.90;;;;;;5072787;28;20048;-81
2022/01/07 00:41:40;;;;;;;15.73;6.03;;;3.90;99.90;;;;;;5032486;28;20044;-81
2022/01/07 00:44:06;;;;;;;20.43;6.50;;;3.90;99.90;;;;;;5067895;28;20054;-80
2022/01/07 00:46:31;;;;;;;17.30;6.27;;;4.00;99.90;;;;;;5043514;28;20046;-82
2022/01/07 00:48:57;;;;;;;19.23;5.57;;;3.80;99.90;;;;;;5061891;28;20050;-81
2022/01/07 00:51:24;;;;;;;20.33;5.87;;;3.80;99.90;;;;;;5047133;28;20036;-83
2022/01/07 00:53:50;;;;;;;19.93;6.47;;;3.80;99.90;;;;;;5039228;28;20550;-82
2022/01/07 00:56:16;;;;;;;19.37;6.23;;;3.80;99.90;;;;;;5037225;28;20298;-83
2022/01/07 00:58:41;;;;;;;18.30;6.20;;;3.80;99.90;;;;;;5042770;28;20036;-81
2022/01/07 01:01:07;;;;;;;21.27;5.93;;;3.70;99.90;;;;;;5052591;28;20099;-81
2022/01/07 01:03:33;;;;;;;17.40;6.13;;;3.70;99.90;;;;;;5071163;28;20048;-79
2022/01/07 01:05:59;;;;;;;18.10;6.87;;;3.60;99.90;;;;;;5059326;28;20075;-79
2022/01/07 01:08:26;;;;;;;14.20;5.87;;;3.60;99.90;;;;;;5063744;28;20052;-80
2022/01/07 01:10:52;;;;;;;21.17;7.10;;;3.50;99.90;;;;;;5033907;28;20052;-80
2022/01/07 01:13:19;;;;;;;17.47;6.13;;;3.50;99.90;;;;;;5032588;28;20850;-78
2022/01/07 01:15:44;;;;;;;25.10;7.47;;;3.50;99.90;;;;;;5056666;28;20123;-78
2022/01/07 01:18:10;;;;;;;17.70;6.27;;;3.40;99.90;;;;;;5037772;28;20389;-78
2022/01/07 01:20:36;;;;;;;21.63;7.93;;;3.40;99.90;;;;;;5047040;28;20068;-78
2022/01/07 01:23:02;;;;;;;18.13;6.80;;;3.40;99.90;;;;;;5038698;28;20109;-80
2022/01/07 01:25:29;;;;;;;22.73;6.77;;;3.30;99.90;;;;;;5046661;28;20052;-79
2022/01/07 01:27:55;;;;;;;17.13;7.30;;;3.30;99.90;;;;;;5052357;28;20049;-78
2022/01/07 01:30:21;;;;;;;24.20;7.93;;;3.30;99.90;;;;;;5069432;28;20347;-80
2022/01/07 01:32:48;;;;;;;19.40;7.20;;;3.20;99.90;;;;;;5038411;28;20048;-79
2022/01/07 01:35:15;;;;;;;24.17;7.77;;;3.20;99.90;;;;;;5055796;28;20052;-80
2022/01/07 01:37:42;;;;;;;23.70;8.20;;;3.20;99.90;;;;;;5055528;28;20305;-78
2022/01/07 01:40:09;;;;;;;21.17;7.83;;;3.10;99.90;;;;;;5074583;28;20312;-79
2022/01/07 01:42:37;;;;;;;23.00;7.77;;;3.10;99.90;;;;;;5047179;28;20305;-79
2022/01/07 01:45:03;;;;;;;20.63;8.80;;;3.10;99.90;;;;;;5038275;28;20830;-80
2022/01/07 01:47:29;;;;;;;24.23;8.40;;;3.00;99.90;;;;;;5055259;28;20294;-80
2022/01/07 01:49:54;;;;;;;21.97;8.30;;;3.00;99.90;;;;;;5033090;28;20311;-80
2022/01/07 01:52:20;;;;;;;20.33;8.43;;;3.00;99.90;;;;;;5044134;28;20090;-80
2022/01/07 01:54:46;;;;;;;21.73;8.10;;;3.00;99.90;;;;;;5063484;28;20062;-80
2022/01/07 01:57:14;;;;;;;24.47;9.37;;;2.90;99.90;;;;;;5040537;28;20044;-79
2022/01/07 01:59:41;;;;;;;20.03;9.33;;;2.90;99.90;;;;;;5050646;28;20051;-79
2022/01/07 02:02:08;;;;;;;23.03;8.83;;;2.90;99.90;;;;;;5068698;28;20294;-79
2022/01/07 02:04:34;;;;;;;20.70;9.33;;;2.90;99.90;;;;;;5058494;28;20302;-79
2022/01/07 02:07:00;;;;;;;24.87;9.53;;;2.80;99.90;;;;;;5036498;28;20298;-80
2022/01/07 02:09:29;;;;;;;21.93;9.33;;;2.80;99.90;;;;;;5054555;28;20318;-79
2022/01/07 02:11:56;;;;;;;22.57;10.10;;;2.80;99.90;;;;;;5062751;28;20044;-80
2022/01/07 02:14:22;;;;;;;22.53;10.37;;;2.80;99.90;;;;;;5045718;28;20843;-79
2022/01/07 02:16:49;;;;;;;23.90;9.90;;;2.80;99.90;;;;;;5068879;28;20389;-79
2022/01/07 02:19:15;;;;;;;26.57;11.37;;;2.80;99.90;;;;;;5044127;28;20044;-80
2022/01/07 02:21:42;;;;;;;25.53;10.47;;;2.80;99.90;;;;;;5074070;28;20312;-81
2022/01/07 02:24:08;;;;;;;31.03;10.90;;;2.80;99.90;;;;;;5050596;28;20127;-80
2022/01/07 02:26:35;;;;;;;26.53;11.03;;;2.80;99.90;;;;;;5057462;28;20731;-81
2022/01/07 02:29:00;;;;;;;19.00;10.73;;;2.80;99.90;;;;;;5071802;28;20059;-79
2022/01/07 02:31:27;;;;;;;25.13;10.43;;;2.80;99.90;;;;;;5070043;28;20788;-78
2022/01/07 02:33:53;;;;;;;24.23;11.17;;;2.80;99.90;;;;;;5040017;28;20410;-79
2022/01/07 02:36:18;;;;;;;26.00;11.43;;;2.80;99.90;;;;;;5035334;28;20317;-78
2022/01/07 02:38:45;;;;;;;30.83;12.53;;;2.80;99.90;;;;;;5063622;28;20052;-79
2022/01/07 02:41:11;;;;;;;31.80;12.27;;;2.80;99.90;;;;;;5050887;28;20622;-79
2022/01/07 02:43:37;;;;;;;25.33;12.37;;;2.80;99.90;;;;;;5045139;28;20319;-80
2022/01/07 02:46:03;;;;;;;24.33;11.77;;;2.80;99.90;;;;;;5037409;28;20094;-80
2022/01/07 02:48:29;;;;;;;26.13;11.57;;;2.90;99.90;;;;;;5038447;28;20075;-78
2022/01/07 02:50:55;;;;;;;25.27;11.33;;;2.80;99.90;;;;;;5051467;28;20321;-80
2022/01/07 02:53:21;;;;;;;23.80;11.27;;;2.70;99.90;;;;;;5031651;28;20097;-79
2022/01/07 02:55:48;;;;;;;26.00;12.63;;;2.80;99.90;;;;;;5053539;28;20036;-80
2022/01/07 02:58:14;;;;;;;26.20;11.90;;;2.80;99.90;;;;;;5050211;28;20044;-80
2022/01/07 03:00:39;;;;;;;24.80;12.53;;;2.70;99.90;;;;;;5035031;28;20343;-81
2022/01/07 03:03:07;;;;;;;26.47;11.50;;;2.70;99.90;;;;;;5041007;28;20044;-80
2022/01/07 03:05:33;;;;;;;20.93;12.60;;;2.80;99.90;;;;;;5066367;28;20044;-80
2022/01/07 03:07:59;;;;;;;19.33;12.00;;;2.70;99.90;;;;;;5037452;28;20299;-80
2022/01/07 03:10:29;;;;;;;20.77;12.43;;;2.70;99.90;;;;;;5053211;28;20352;-80
2022/01/07 03:12:57;;;;;;;22.93;12.20;;;2.80;99.90;;;;;;5075788;28;20516;-81
2022/01/07 03:15:23;;;;;;;23.83;12.30;;;2.80;99.90;;;;;;5056818;28;20332;-81
2022/01/07 03:17:49;;;;;;;25.43;12.87;;;2.80;99.90;;;;;;5063550;28;20302;-81
2022/01/07 03:20:17;;;;;;;24.07;12.23;;;2.80;99.90;;;;;;5065774;28;20113;-79
2022/01/07 03:22:44;;;;;;;25.23;12.50;;;2.80;99.90;;;;;;5039586;28;20123;-80
2022/01/07 03:25:10;;;;;;;20.97;11.87;;;2.80;99.90;;;;;;5042984;28;20671;-80
2022/01/07 03:27:37;;;;;;;21.83;12.03;;;2.80;99.90;;;;;;5061234;28;20308;-78
2022/01/07 03:30:06;;;;;;;20.27;11.23;;;2.80;99.90;;;;;;5042497;28;20351;-79
2022/01/07 03:32:32;;;;;;;20.00;11.93;;;2.80;99.90;;;;;;5057459;28;20382;-80
2022/01/07 03:34:57;;;;;;;17.30;12.03;;;2.90;99.90;;;;;;5040709;28;20305;-80
2022/01/07 03:37:23;;;;;;;19.17;11.00;;;2.80;99.90;;;;;;5057678;28;20302;-80
2022/01/07 03:39:49;;;;;;;22.43;12.60;;;2.80;99.90;;;;;;5074618;28;20482;-79
2022/01/07 03:42:15;;;;;;;21.17;13.27;;;2.90;99.90;;;;;;5059362;28;20088;-81
2022/01/07 03:44:41;;;;;;;19.93;12.10;;;2.90;99.90;;;;;;5048789;28;20079;-81
2022/01/07 03:47:08;;;;;;;20.27;12.70;;;2.90;99.90;;;;;;5027628;28;20041;-79
2022/01/07 03:49:34;;;;;;;23.93;12.47;;;2.90;99.90;;;;;;5057584;28;20056;-80
2022/01/07 03:52:00;;;;;;;19.13;12.80;;;2.90;99.90;;;;;;5040414;28;20301;-80
2022/01/07 03:54:26;;;;;;;22.37;12.07;;;2.90;99.90;;;;;;5057957;28;20468;-80
2022/01/07 03:56:52;;;;;;;24.50;12.90;;;3.00;99.90;;;;;;5067101;28;20520;-80
2022/01/07 03:59:17;;;;;;;18.73;12.20;;;3.00;99.90;;;;;;5039543;28;20044;-80
2022/01/07 04:01:43;;;;;;;21.80;12.30;;;3.00;99.90;;;;;;5053057;28;20497;-80
2022/01/07 04:04:10;;;;;;;20.40;12.40;;;3.00;99.90;;;;;;5047335;28;20049;-80
2022/01/07 04:06:36;;;;;;;20.30;12.37;;;3.00;99.90;;;;;;5068868;28;20036;-80
2022/01/07 04:09:01;;;;;;;22.97;11.73;;;3.00;99.90;;;;;;5047856;28;20305;-79
2022/01/07 04:11:27;;;;;;;19.13;12.13;;;3.20;99.90;;;;;;5067737;28;20501;-79
2022/01/07 04:13:53;;;;;;;20.03;10.77;;;3.10;99.90;;;;;;5058453;28;20047;-81
2022/01/07 04:16:18;;;;;;;20.43;11.23;;;3.10;99.90;;;;;;5054512;28;20052;-79
2022/01/07 04:18:44;;;;;;;23.37;11.80;;;3.10;99.90;;;;;;5049365;28;20123;-81
2022/01/07 04:21:11;;;;;;;20.73;12.00;;;3.10;99.90;;;;;;5068780;28;20048;-79
2022/01/07 04:23:37;;;;;;;18.43;10.90;;;3.10;99.90;;;;;;5069210;28;20048;-80
2022/01/07 04:26:03;;;;;;;19.17;11.83;;;3.10;99.90;;;;;;5056902;28;20305;-80
2022/01/07 04:28:28;;;;;;;21.63;10.97;;;3.00;99.90;;;;;;5066129;28;20039;-80
2022/01/07 04:30:54;;;;;;;18.57;11.57;;;3.00;99.90;;;;;;5068681;28;20044;-80
2022/01/07 04:33:25;;;;;;;22.00;11.27;;;3.00;99.90;;;;;;5051618;28;20108;-79
2022/01/07 04:35:52;;;;;;;23.63;10.63;;;3.10;99.90;;;;;;5051946;28;20036;-81
2022/01/07 04:38:19;;;;;;;23.57;11.67;;;3.00;99.90;;;;;;5067467;28;20807;-80
2022/01/07 04:40:45;;;;;;;21.53;11.93;;;3.10;99.90;;;;;;5054239;28;20402;-79
2022/01/07 04:43:10;;;;;;;18.93;10.80;;;3.10;99.90;;;;;;5075021;28;20393;-80
2022/01/07 04:45:36;;;;;;;17.77;11.23;;;3.10;99.90;;;;;;5075150;28;20069;-80
2022/01/07 04:48:03;;;;;;;23.63;11.57;;;3.20;99.90;;;;;;5048842;28;20052;-81
2022/01/07 04:50:29;;;;;;;17.77;11.20;;;3.10;99.90;;;;;;5048189;28;20125;-80
2022/01/07 04:52:55;;;;;;;17.67;10.93;;;3.10;99.90;;;;;;5051591;28;20818;-79
2022/01/07 04:55:24;;;;;;;18.00;10.57;;;3.10;99.90;;;;;;5058569;28;20359;-80
2022/01/07 04:57:50;;;;;;;19.60;10.43;;;3.10;99.90;;;;;;5055208;28;20883;-79
2022/01/07 05:00:18;;;;;;;18.33;10.50;;;3.20;99.90;;;;;;5052713;28;20302;-81
2022/01/07 05:02:45;;;;;;;18.30;9.53;;;3.20;99.90;;;;;;5060428;28;20306;-80
2022/01/07 05:05:11;;;;;;;18.43;9.83;;;3.10;99.90;;;;;;5075854;28;20413;-80
2022/01/07 05:07:37;;;;;;;15.93;9.47;;;3.20;99.90;;;;;;5056293;28;20381;-79
2022/01/07 05:10:04;;;;;;;16.63;9.53;;;3.20;99.90;;;;;;5059185;28;20337;-79
2022/01/07 05:12:31;;;;;;;13.37;8.73;;;3.20;99.90;;;;;;5051842;28;20131;-80
2022/01/07 05:14:57;;;;;;;21.33;9.93;;;3.20;99.90;;;;;;5037335;28;20311;-78
2022/01/07 05:17:23;;;;;;;18.40;10.30;;;3.20;99.90;;;;;;5054357;28;20324;-80
2022/01/07 05:19:48;;;;;;;12.60;9.57;;;3.20;99.90;;;;;;5071756;28;20046;-79
2022/01/07 05:22:14;;;;;;;16.50;9.80;;;3.20;99.90;;;;;;5040877;28;20047;-80
2022/01/07 05:24:40;;;;;;;15.33;10.07;;;3.20;99.90;;;;;;5056077;28;20486;-80
2022/01/07 05:27:06;;;;;;;18.03;10.47;;;3.20;99.90;;;;;;5037926;28;20064;-80
2022/01/07 05:29:35;;;;;;;13.73;9.17;;;3.20;99.90;;;;;;5042895;28;20079;-79
2022/01/07 05:32:00;;;;;;;15.83;9.10;;;3.30;99.90;;;;;;5053626;28;20098;-79
2022/01/07 05:34:26;;;;;;;11.93;8.93;;;3.20;99.90;;;;;;5057649;28;20048;-78
2022/01/07 05:36:52;;;;;;;16.03;10.03;;;3.20;99.90;;;;;;5057432;28;20044;-80
2022/01/07 05:39:18;;;;;;;12.93;9.53;;;3.20;99.90;;;;;;5034050;28;20040;-79
2022/01/07 05:41:44;;;;;;;12.37;8.87;;;3.20;99.90;;;;;;5040818;28;20150;-78
2022/01/07 05:44:09;;;;;;;15.83;9.70;;;3.20;99.90;;;;;;5075060;28;20806;-79
2022/01/07 05:46:37;;;;;;;15.10;9.23;;;3.20;99.90;;;;;;5055324;28;20039;-80
2022/01/07 05:49:02;;;;;;;16.37;8.93;;;3.20;99.90;;;;;;5055909;28;20084;-80
2022/01/07 05:51:28;;;;;;;15.33;9.60;;;3.20;99.90;;;;;;5036546;28;20395;-79
2022/01/07 05:53:54;;;;;;;16.70;9.20;;;3.20;99.90;;;;;;5073339;28;20505;-78
2022/01/07 05:56:20;;;;;;;14.17;8.87;;;3.20;99.90;;;;;;5074343;28;20122;-79
2022/01/07 05:58:45;;;;;;;13.87;9.23;;;3.20;99.90;;;;;;5053584;28;20040;-80
2022/01/07 06:01:12;;;;;;;12.57;8.67;;;3.20;99.90;;;;;;5039847;28;20067;-80
2022/01/07 06:03:39;;;;;;;13.17;9.00;;;3.20;99.90;;;;;;5055038;28;20063;-79
2022/01/07 06:06:05;;;;;;;13.37;8.93;;;3.30;99.90;;;;;;5051808;28;20309;-79
2022/01/07 06:08:31;;;;;;;13.73;7.97;;;3.30;99.90;;;;;;5048972;28;20298;-78
2022/01/07 06:10:57;;;;;;;12.63;7.73;;;3.30;99.90;;;;;;5056603;28;20040;-79
2022/01/07 06:13:23;;;;;;;15.07;8.00;;;3.30;99.90;;;;;;5058452;28;20075;-80
2022/01/07 06:15:48;;;;;;;11.60;7.93;;;3.30;99.90;;;;;;5045007;28;20048;-80
2022/01/07 06:18:14;;;;;;;12.00;7.97;;;3.30;99.90;;;;;;5052568;28;20075;-79
2022/01/07 06:20:41;;;;;;;13.37;8.47;;;3.30;99.90;;;;;;5029982;28;20112;-80
2022/01/07 06:23:07;;;;;;;14.63;8.63;;;3.30;99.90;;;;;;5036618;28;20139;-79
2022/01/07 06:25:32;;;;;;;11.37;8.00;;;3.30;99.90;;;;;;5039803;28;20396;-79
2022/01/07 06:27:58;;;;;;;11.97;8.33;;;3.30;99.90;;;;;;5066005;28;20101;-79
2022/01/07 06:30:24;;;;;;;13.37;8.20;;;3.40;99.90;;;;;;5048837;28;20053;-80
2022/01/07 06:32:50;;;;;;;10.63;7.70;;;3.40;99.90;;;;;;5073396;28;20040;-80
2022/01/07 06:35:16;;;;;;;12.13;7.93;;;3.40;99.90;;;;;;5050236;28;20044;-80
2022/01/07 06:37:43;;;;;;;13.93;8.43;;;3.40;99.90;;;;;;5049745;28;20071;-79
2022/01/07 06:40:10;;;;;;;14.77;8.13;;;3.40;99.90;;;;;;5070032;28;20639;-80
2022/01/07 06:42:36;;;;;;;11.67;7.77;;;3.40;99.90;;;;;;5047192;28;20310;-79
2022/01/07 06:45:05;;;;;;;10.33;7.60;;;3.50;99.90;;;;;;5048533;28;20299;-79
2022/01/07 06:47:31;;;;;;;10.70;8.00;;;3.50;99.90;;;;;;5036599;28;20127;-80
2022/01/07 06:49:57;;;;;;;11.37;7.97;;;3.50;99.90;;;;;;5044142;28;20434;-80
2022/01/07 06:52:22;;;;;;;12.50;8.17;;;3.50;99.90;;;;;;5041660;28;20063;-80
2022/01/07 06:54:49;;;;;;;8.60;7.63;;;3.50;99.90;;;;;;5038224;28;20136;-79
2022/01/07 06:57:15;;;;;;;10.27;8.57;;;3.50;99.90;;;;;;5052021;28;20044;-79
2022/01/07 06:59:41;;;;;;;10.97;8.33;;;3.50;99.90;;;;;;5054826;28;20347;-80
2022/01/07 07:02:07;;;;;;;12.43;8.50;;;3.50;99.90;;;;;;5048976;28;20048;-79
2022/01/07 07:04:33;;;;;;;11.43;8.23;;;3.50;99.90;;;;;;5064439;22;20057;-83
2022/01/07 07:06:59;;;;;;;11.27;8.13;;;3.60;99.90;;;;;;5035373;28;20295;-82
2022/01/07 07:09:25;;;;;;;12.70;8.93;;;3.60;99.90;;;;;;5008723;28;20052;-83
2022/01/07 07:11:52;;;;;;;12.23;9.90;;;3.50;99.90;;;;;;5017952;28;20494;-82
2022/01/07 07:14:17;;;;;;;11.37;8.97;;;3.60;99.90;;;;;;5010381;28;20042;-82
2022/01/07 07:16:43;;;;;;;13.23;9.67;;;3.60;99.90;;;;;;5014533;28;20819;-82
2022/01/07 07:19:10;;;;;;;15.07;9.37;;;3.50;99.90;;;;;;5045967;28;20111;-82
2022/01/07 07:21:35;;;;;;;14.20;10.23;;;3.60;99.90;;;;;;5020858;28;20304;-82
2022/01/07 07:24:02;;;;;;;14.00;10.40;;;3.60;99.90;;;;;;5017509;28;20052;-82
2022/01/07 07:26:29;;;;;;;16.43;11.00;;;3.60;99.90;;;;;;5037650;28;20036;-84
2022/01/07 07:28:56;;;;;;;16.20;10.80;;;3.60;99.90;;;;;;5024037;28;20130;-84
2022/01/07 07:31:22;;;;;;;16.63;11.33;;;3.60;99.90;;;;;;5029532;28;20068;-83
2022/01/07 07:36:27;;;;;;;16.50;12.23;;;3.60;99.90;;;;;;5041266;28;20064;-82
2022/01/07 07:38:53;;;;;;;17.80;11.93;;;3.70;99.90;;;;;;5010261;28;20037;-82
2022/01/07 07:41:18;;;;;;;19.17;12.97;;;3.70;99.90;;;;;;5020939;28;20049;-83
2022/01/07 07:43:47;;;;;;;18.50;12.80;;;3.70;99.90;;;;;;5020114;28;20068;-82
2022/01/07 07:46:14;;;;;;;19.43;13.87;;;3.70;99.90;;;;;;5012806;28;20073;-85
2022/01/07 07:48:40;;;;;;;21.90;13.70;;;3.70;99.90;;;;;;5003095;28;20078;-88
2022/01/07 07:51:06;;;;;;;22.53;14.47;;;3.80;99.90;;;;;;5030804;28;20050;-85
2022/01/07 07:53:32;;;;;;;18.83;14.37;;;3.80;99.90;;;;;;5019229;28;20045;-85
2022/01/07 07:55:58;;;;;;;18.07;12.77;;;3.80;99.90;;;;;;5012364;28;20041;-84
2022/01/07 07:58:24;;;;;;;24.43;14.90;;;3.80;99.90;;;;;;5017335;28;20129;-84
2022/01/07 08:00:51;;;;;;;22.17;15.03;;;3.80;99.90;;;;;;5036358;28;20041;-85
2022/01/07 08:03:19;;;;;;;23.00;15.47;;;3.90;99.90;;;;;;5026193;28;20048;-84
2022/01/07 08:05:45;;;;;;;21.10;15.60;;;3.90;99.90;;;;;;5010180;28;20075;-84
2022/01/07 08:08:11;;;;;;;22.47;16.50;;;3.90;99.90;;;;;;5008587;28;20041;-84
2022/01/07 08:10:44;;;;;;;24.63;15.33;;;3.90;99.90;;;;;;5040818;28;20565;-84
2022/01/07 08:18:24;;;;;;;20.77;16.37;;;4.00;99.90;;;;;;5016904;28;20141;-84
2022/01/07 08:20:50;;;;;;;26.03;16.50;;;4.00;99.90;;;;;;5013862;28;20132;-85
2022/01/07 08:23:16;;;;;;;29.90;16.80;;;4.00;99.90;;;;;;5008535;28;20041;-84
2022/01/07 08:25:42;;;;;;;24.17;18.63;;;4.10;99.90;;;;;;5029992;28;20045;-85
2022/01/07 08:28:08;;;;;;;30.10;18.03;;;4.10;99.90;;;;;;5001127;28;20072;-84
2022/01/07 08:30:48;;;;;;;29.67;17.83;;;4.10;99.90;;;;;;5024292;28;20463;-85
2022/01/07 08:36:00;;;;;;;26.37;18.27;;;4.20;99.90;;;;;;5017071;28;20088;-84
2022/01/07 08:38:26;;;;;;;26.73;18.23;;;4.20;99.90;;;;;;5022244;28;20052;-84
2022/01/07 08:40:52;;;;;;;26.97;19.77;;;4.30;99.90;;;;;;5026665;28;20046;-85
2022/01/07 08:43:17;;;;;;;27.83;19.83;;;4.40;99.90;;;;;;5017272;28;20132;-84
2022/01/07 08:45:43;;;;;;;30.90;19.57;;;4.40;99.90;;;;;;5013290;28;20053;-85
2022/01/07 08:48:09;;;;;;;33.10;21.27;;;4.40;99.90;;;;;;5037771;28;20055;-85
2022/01/07 08:50:35;;;;;;;33.40;21.03;;;4.40;99.90;;;;;;5005610;28;20056;-85
2022/01/07 08:53:02;;;;;;;32.77;20.83;;;4.50;99.90;;;;;;5009286;28;20076;-86
2022/01/07 08:55:28;;;;;;;27.23;20.53;;;4.50;99.90;;;;;;5030064;28;20041;-85
2022/01/07 08:57:54;;;;;;;28.80;20.80;;;4.50;99.90;;;;;;5039864;28;20785;-85
2022/01/07 09:00:19;;;;;;;28.33;20.17;;;4.60;99.90;;;;;;5024452;28;20072;-84
2022/01/07 09:02:45;;;;;;;32.93;20.67;;;4.70;99.90;;;;;;4999622;28;20053;-85
2022/01/07 09:05:11;;;;;;;36.27;22.30;;;4.70;99.90;;;;;;5012940;28;20087;-83
2022/01/07 09:07:37;;;;;;;31.57;21.43;;;4.70;99.90;;;;;;5000235;28;20053;-87
2022/01/07 09:10:05;;;;;;;34.03;21.00;;;4.80;99.90;;;;;;5000937;28;20049;-85
2022/01/07 09:12:30;;;;;;;28.40;22.47;;;4.80;99.90;;;;;;4999097;28;20053;-86
2022/01/07 09:14:56;;;;;;;37.37;21.97;;;4.80;99.90;;;;;;5007403;28;20047;-84
2022/01/07 09:17:22;;;;;;;31.47;21.73;;;4.90;99.90;;;;;;5015662;28;20049;-85
2022/01/07 09:19:48;;;;;;;35.70;21.73;;;4.90;99.90;;;;;;5017367;28;20105;-85
2022/01/07 09:22:14;;;;;;;31.60;21.90;;;4.90;99.90;;;;;;5021171;28;20095;-87
2022/01/07 09:24:40;;;;;;;35.00;22.00;;;4.90;99.90;;;;;;5030177;28;20052;-84
2022/01/07 09:27:07;;;;;;;34.30;21.43;;;5.00;99.90;;;;;;5000419;28;20116;-84
2022/01/07 09:29:33;;;;;;;30.43;21.60;;;5.00;99.90;;;;;;5029708;28;20068;-85
2022/01/07 09:31:58;;;;;;;34.07;21.63;;;5.00;99.90;;;;;;4998786;28;20072;-84
2022/01/07 09:34:25;;;;;;;35.03;20.67;;;5.00;99.90;;;;;;5001520;28;20049;-84
2022/01/07 09:36:51;;;;;;;28.00;20.60;;;5.10;99.90;;;;;;5003759;28;20056;-84
2022/01/07 09:39:17;;;;;;;30.00;19.47;;;5.20;99.90;;;;;;5022787;28;20044;-85
2022/01/07 09:41:42;;;;;;;34.50;20.73;;;5.30;99.90;;;;;;5015557;28;20064;-84
2022/01/07 09:44:10;;;;;;;31.43;21.17;;;5.30;99.90;;;;;;5001433;28;20044;-83
2022/01/07 09:46:36;;;;;;;28.47;19.63;;;5.30;99.90;;;;;;5024422;28;20046;-83
2022/01/07 09:49:04;;;;;;;28.87;21.00;;;5.30;99.90;;;;;;5016853;28;20049;-84
2022/01/07 09:51:30;;;;;;;32.97;19.40;;;5.30;99.90;;;;;;5032484;28;20067;-83
2022/01/07 09:53:55;;;;;;;32.00;20.20;;;5.30;99.90;;;;;;4988671;28;20668;-83
2022/01/07 09:56:21;;;;;;;35.67;20.43;;;5.30;99.90;;;;;;4999280;28;20103;-83
2022/01/07 09:58:47;;;;;;;29.07;20.10;;;5.30;99.90;;;;;;4995412;28;20095;-85
2022/01/07 10:01:16;;;;;;;31.23;20.37;;;5.30;99.90;;;;;;5015548;28;20041;-83
2022/01/07 10:03:43;;;;;;;37.10;21.33;;;5.30;99.90;;;;;;5004749;28;20052;-81
2022/01/07 10:06:21;;;;;;;28.97;19.53;;;5.30;99.90;;;;;;5004218;28;20056;-85
2022/01/07 10:09:02;;;;;;;31.17;19.30;;;5.30;99.90;;;;;;4998098;28;20102;-83
2022/01/07 10:11:28;;;;;;;28.00;15.63;;;5.30;99.90;;;;;;5001556;28;20495;-83
2022/01/07 10:14:16;;;;;;;24.93;14.93;;;5.30;99.90;;;;;;4997178;28;20037;-84
2022/01/07 10:16:50;;;;;;;16.80;8.90;;;5.40;99.90;;;;;;5013989;28;20045;-84
2022/01/07 10:19:32;;;;;;;14.85;8.85;;;5.40;99.90;;;;;;5020960;28;20056;-85
2022/01/07 10:21:58;;;;;;;12.00;9.10;;;5.40;99.90;;;;;;5024531;28;20124;-84
2022/01/07 10:24:24;;;;;;;13.23;9.10;;;5.40;99.90;;;;;;5018011;28;20060;-84
2022/01/07 10:27:08;;;;;;;13.43;8.93;;;5.50;99.90;;;;;;4999640;28;20033;-83
2022/01/07 10:29:38;;;;;;;11.68;8.57;;;5.50;99.90;;;;;;5034025;28;20047;-84
2022/01/07 10:35:19;;;;;;;10.30;7.47;;;5.40;99.90;;;;;;5153379;27;20925;-85
2022/01/07 10:37:51;;;;;;;15.87;7.20;;;5.30;99.90;;;;;;5120060;28;20446;-83
2022/01/07 10:40:29;;;;;;;11.20;7.10;;;5.30;99.90;;;;;;5087550;28;20047;-83
2022/01/07 10:42:55;;;;;;;12.37;9.00;;;5.30;99.90;;;;;;5106340;28;20043;-83
2022/01/07 10:45:22;;;;;;;12.83;10.03;;;5.30;99.90;;;;;;5103873;28;20040;-84
2022/01/07 10:47:52;;;;;;;19.57;11.70;;;5.30;99.90;;;;;;5128356;28;20035;-83
2022/01/07 10:50:22;;;;;;;15.87;11.63;;;5.30;99.90;;;;;;5121906;28;20043;-83
2022/01/07 10:52:47;;;;;;;20.20;13.30;;;5.20;99.90;;;;;;5106566;28;20047;-82
2022/01/07 10:55:15;;;;;;;14.93;9.17;;;5.20;99.90;;;;;;5098420;28;20044;-85
2022/01/07 10:57:44;;;;;;;16.03;10.00;;;5.20;99.90;;;;;;5106299;28;20666;-86
2022/01/07 11:00:12;;;;;;;18.20;7.73;;;5.30;99.90;;;;;;5086945;28;20047;-82
2022/01/07 11:02:39;;;;;;;18.93;6.10;;;5.70;99.90;;;;;;5095051;28;20039;-83
2022/01/07 11:05:07;;;;;;;11.27;5.40;;;5.80;99.90;;;;;;5113154;28;20091;-84
2022/01/07 11:07:35;;;;;;;9.07;4.90;;;5.80;99.90;;;;;;5099273;28;20043;-85
2022/01/07 11:10:01;;;;;;;8.67;4.87;;;5.80;99.90;;;;;;5116751;28;20031;-83
2022/01/07 11:12:28;;;;;;;13.03;5.53;;;5.90;99.90;;;;;;5130460;28;20039;-82
2022/01/07 11:14:55;;;;;;;11.27;5.47;;;5.90;99.90;;;;;;5131011;28;20027;-84
2022/01/07 11:17:21;;;;;;;16.97;6.37;;;5.90;99.90;;;;;;5110609;28;20048;-83
2022/01/07 11:19:52;;;;;;;13.07;7.97;;;5.90;99.90;;;;;;5112398;28;20039;-82
2022/01/07 11:22:19;;;;;;;19.20;9.47;;;5.80;99.90;;;;;;5094168;28;20047;-84
2022/01/07 11:24:50;;;;;;;13.33;9.40;;;6.20;99.90;;;;;;5094730;28;20044;-83
2022/01/07 11:27:18;;;;;;;15.97;10.30;;;6.90;99.90;;;;;;5114070;28;20119;-83
2022/01/07 11:30:11;;;;;;;17.37;10.73;;;7.20;99.90;;;;;;5092191;28;20044;-83
2022/01/07 11:32:38;;;;;;;16.27;10.67;;;7.20;99.90;;;;;;5126070;28;20035;-83
2022/01/07 11:35:45;;;;;;;17.30;11.07;;;7.00;99.90;;;;;;5106553;28;20508;-84
2022/01/07 11:38:33;;;;;;;19.07;11.73;;;6.70;99.90;;;;;;5083684;28;20118;-84
2022/01/07 11:41:02;;;;;;;18.77;11.53;;;6.40;99.90;;;;;;5087952;28;20058;-85
2022/01/07 11:43:34;;;;;;;23.23;12.13;;;6.30;99.90;;;;;;5113431;28;20040;-84
2022/01/07 11:46:19;;;;;;;20.60;12.43;;;6.10;99.90;;;;;;5077310;28;20444;-85
2022/01/07 11:48:45;;;;;;;18.73;12.70;;;6.00;99.90;;;;;;5104977;28;20138;-84
2022/01/07 11:51:13;;;;;;;23.67;13.63;;;5.90;99.90;;;;;;5093511;28;20067;-84
2022/01/07 11:53:58;;;;;;;16.93;12.43;;;5.80;99.90;;;;;;5091991;28;20103;-84
2022/01/07 11:56:25;;;;;;;22.57;12.97;;;5.80;99.90;;;;;;5117328;28;20040;-82
2022/01/07 11:58:55;;;;;;;24.37;11.97;;;5.70;99.90;;;;;;5067054;28;22839;-82
2022/01/07 12:01:24;;;;;;;23.73;13.37;;;5.70;99.90;;;;;;5087873;28;20266;-83
2022/01/07 12:03:50;;;;;;;18.67;12.13;;;5.70;99.90;;;;;;5098835;28;20118;-84
2022/01/07 12:06:55;;;;;;;23.80;12.10;;;5.70;99.90;;;;;;5106230;28;20035;-83
2022/01/07 12:09:29;;;;;;;15.45;8.15;;;5.70;99.90;;;;;;5089314;28;20626;-83
2022/01/07 12:11:59;;;;;;;10.45;5.60;;;5.70;99.90;;;;;;5104757;27;20055;-85
2022/01/07 12:14:28;;;;;;;12.70;5.53;;;5.70;99.90;;;;;;5085763;28;20498;-83
2022/01/07 12:16:56;;;;;;;14.00;6.97;;;5.70;99.90;;;;;;5080463;28;20050;-83
2022/01/07 12:20:01;;;;;;;8.50;3.57;;;5.90;99.90;;;;;;5107067;28;20126;-82
2022/01/07 12:22:27;;;;;;;6.23;2.40;;;6.60;99.90;;;;;;5086441;28;20051;-85
2022/01/07 12:24:59;;;;;;;6.77;2.03;;;7.20;99.90;;;;;;5087207;28;20055;-83
2022/01/07 12:27:26;;;;;;;5.83;1.40;;;7.50;99.90;;;;;;5091089;28;20032;-83
2022/01/07 12:29:54;;;;;;;4.03;1.30;;;7.30;99.90;;;;;;5092719;28;20047;-82
2022/01/07 12:32:27;;;;;;;6.10;1.57;;;6.90;99.90;;;;;;5106713;28;20040;-83
2022/01/07 12:34:53;;;;;;;9.03;1.40;;;6.60;99.90;;;;;;5108084;28;20042;-82
2022/01/07 12:37:21;;;;;;;7.07;1.30;;;6.30;99.90;;;;;;5072398;28;20051;-83
2022/01/07 12:39:49;;;;;;;5.17;1.20;;;6.10;99.90;;;;;;5093239;28;20061;-82
2022/01/07 12:42:16;;;;;;;4.93;1.83;;;6.10;99.90;;;;;;5091754;28;20066;-84
2022/01/07 12:44:46;;;;;;;6.53;1.37;;;6.00;99.90;;;;;;5071461;28;20040;-83
2022/01/07 12:47:14;;;;;;;6.47;1.43;;;6.40;99.90;;;;;;5091250;28;20056;-82
2022/01/07 12:49:42;;;;;;;8.37;1.33;;;7.20;99.90;;;;;;5074776;28;20046;-82
2022/01/07 12:52:17;;;;;;;6.90;1.60;;;7.80;99.90;;;;;;5073587;28;20552;-84
2022/01/07 12:54:49;;;;;;;7.80;1.80;;;7.90;99.90;;;;;;5073335;28;20062;-82
2022/01/07 12:57:23;;;;;;;5.87;1.00;;;8.10;99.90;;;;;;5069015;28;20043;-84